sensor_id;sensor_type;location;lat;lon;timestamp;P1;durP1;ratioP1;P2;durP2;ratioP2
16900;SDS011;8567;52.540;6.434;2023-12-07T00:00:15;6.80;;;6.50;;
16900;SDS011;8567;52.540;6.434;2023-12-07T00:02:42;6.57;;;6.28;;
16900;SDS011;8567;52.540;6.434;2023-12-07T00:05:08;6.43;;;6.13;;
16900;SDS011;8567;52.540;6.434;2023-12-07T00:07:35;7.13;;;6.82;;
16900;SDS011;8567;52.540;6.434;2023-12-07T00:10:02;5.95;;;5.65;;
16900;SDS011;8567;52.540;6.434;2023-12-07T00:12:29;6.20;;;5.90;;
16900;SDS011;8567;52.540;6.434;2023-12-07T00:14:57;5.85;;;5.55;;
16900;SDS011;8567;52.540;6.434;2023-12-07T00:17:24;6.75;;;6.45;;
16900;SDS011;8567;52.540;6.434;2023-12-07T00:19:51;6.28;;;5.97;;
16900;SDS011;8567;52.540;6.434;2023-12-07T00:22:19;5.40;;;5.20;;
16900;SDS011;8567;52.540;6.434;2023-12-07T00:24:45;7.43;;;7.13;;
16900;SDS011;8567;52.540;6.434;2023-12-07T00:27:12;6.78;;;6.47;;
16900;SDS011;8567;52.540;6.434;2023-12-07T00:29:39;6.90;;;6.60;;
16900;SDS011;8567;52.540;6.434;2023-12-07T00:32:07;6.43;;;6.13;;
16900;SDS011;8567;52.540;6.434;2023-12-07T00:34:34;7.07;;;6.78;;
16900;SDS011;8567;52.540;6.434;2023-12-07T00:37:00;7.45;;;7.15;;
16900;SDS011;8567;52.540;6.434;2023-12-07T00:39:28;6.50;;;6.20;;
16900;SDS011;8567;52.540;6.434;2023-12-07T00:41:55;7.10;;;6.80;;
16900;SDS011;8567;52.540;6.434;2023-12-07T00:44:22;6.18;;;5.88;;
16900;SDS011;8567;52.540;6.434;2023-12-07T00:46:49;7.35;;;7.05;;
16900;SDS011;8567;52.540;6.434;2023-12-07T00:49:18;6.22;;;5.93;;
16900;SDS011;8567;52.540;6.434;2023-12-07T00:51:45;6.50;;;6.20;;
16900;SDS011;8567;52.540;6.434;2023-12-07T00:54:11;6.38;;;6.07;;
16900;SDS011;8567;52.540;6.434;2023-12-07T00:56:38;7.00;;;6.70;;
16900;SDS011;8567;52.540;6.434;2023-12-07T00:59:05;6.60;;;6.30;;
16900;SDS011;8567;52.540;6.434;2023-12-07T01:01:32;6.95;;;6.65;;
16900;SDS011;8567;52.540;6.434;2023-12-07T01:03:58;7.35;;;7.05;;
16900;SDS011;8567;52.540;6.434;2023-12-07T01:06:27;6.90;;;6.60;;
16900;SDS011;8567;52.540;6.434;2023-12-07T01:08:54;7.53;;;7.22;;
16900;SDS011;8567;52.540;6.434;2023-12-07T01:11:20;6.93;;;6.63;;
16900;SDS011;8567;52.540;6.434;2023-12-07T01:13:47;6.60;;;6.30;;
16900;SDS011;8567;52.540;6.434;2023-12-07T01:16:14;6.95;;;6.65;;
16900;SDS011;8567;52.540;6.434;2023-12-07T01:18:41;6.82;;;6.53;;
16900;SDS011;8567;52.540;6.434;2023-12-07T01:21:08;6.88;;;6.57;;
16900;SDS011;8567;52.540;6.434;2023-12-07T01:23:36;6.90;;;6.60;;
16900;SDS011;8567;52.540;6.434;2023-12-07T01:26:03;6.85;;;6.55;;
16900;SDS011;8567;52.540;6.434;2023-12-07T01:28:29;6.97;;;6.68;;
16900;SDS011;8567;52.540;6.434;2023-12-07T01:30:57;7.28;;;6.97;;
16900;SDS011;8567;52.540;6.434;2023-12-07T01:33:24;6.25;;;5.95;;
16900;SDS011;8567;52.540;6.434;2023-12-07T01:35:50;6.05;;;5.75;;
16900;SDS011;8567;52.540;6.434;2023-12-07T01:38:17;6.13;;;5.82;;
16900;SDS011;8567;52.540;6.434;2023-12-07T01:40:45;7.00;;;6.70;;
16900;SDS011;8567;52.540;6.434;2023-12-07T01:43:12;6.50;;;6.20;;
16900;SDS011;8567;52.540;6.434;2023-12-07T01:45:39;6.63;;;6.32;;
16900;SDS011;8567;52.540;6.434;2023-12-07T01:48:06;7.03;;;6.72;;
16900;SDS011;8567;52.540;6.434;2023-12-07T01:50:33;7.10;;;6.80;;
16900;SDS011;8567;52.540;6.434;2023-12-07T01:53:01;6.97;;;6.68;;
16900;SDS011;8567;52.540;6.434;2023-12-07T01:55:29;6.50;;;6.20;;
16900;SDS011;8567;52.540;6.434;2023-12-07T01:57:59;7.15;;;6.82;;
16900;SDS011;8567;52.540;6.434;2023-12-07T02:00:26;8.50;;;8.10;;
16900;SDS011;8567;52.540;6.434;2023-12-07T02:02:53;6.97;;;6.68;;
16900;SDS011;8567;52.540;6.434;2023-12-07T02:05:21;6.32;;;6.03;;
16900;SDS011;8567;52.540;6.434;2023-12-07T02:07:48;6.30;;;6.00;;
16900;SDS011;8567;52.540;6.434;2023-12-07T02:10:15;7.57;;;7.28;;
16900;SDS011;8567;52.540;6.434;2023-12-07T02:12:44;6.75;;;6.45;;
16900;SDS011;8567;52.540;6.434;2023-12-07T02:15:12;6.82;;;6.53;;
16900;SDS011;8567;52.540;6.434;2023-12-07T02:17:41;6.80;;;6.50;;
16900;SDS011;8567;52.540;6.434;2023-12-07T02:20:16;6.78;;;6.38;;
16900;SDS011;8567;52.540;6.434;2023-12-07T02:22:48;6.68;;;6.38;;
16900;SDS011;8567;52.540;6.434;2023-12-07T02:25:19;7.30;;;7.00;;
16900;SDS011;8567;52.540;6.434;2023-12-07T02:27:54;7.22;;;6.88;;
16900;SDS011;8567;52.540;6.434;2023-12-07T02:30:20;6.50;;;6.20;;
16900;SDS011;8567;52.540;6.434;2023-12-07T02:32:47;6.75;;;6.45;;
16900;SDS011;8567;52.540;6.434;2023-12-07T02:35:14;6.75;;;6.45;;
16900;SDS011;8567;52.540;6.434;2023-12-07T02:37:42;7.03;;;6.72;;
16900;SDS011;8567;52.540;6.434;2023-12-07T02:40:11;7.28;;;6.97;;
16900;SDS011;8567;52.540;6.434;2023-12-07T02:42:40;6.93;;;6.63;;
16900;SDS011;8567;52.540;6.434;2023-12-07T02:45:09;6.82;;;6.53;;
16900;SDS011;8567;52.540;6.434;2023-12-07T02:47:37;8.77;;;8.38;;
16900;SDS011;8567;52.540;6.434;2023-12-07T02:50:04;7.03;;;6.72;;
16900;SDS011;8567;52.540;6.434;2023-12-07T02:52:32;6.72;;;6.43;;
16900;SDS011;8567;52.540;6.434;2023-12-07T02:54:59;6.72;;;6.43;;
16900;SDS011;8567;52.540;6.434;2023-12-07T02:57:28;7.75;;;7.43;;
16900;SDS011;8567;52.540;6.434;2023-12-07T02:59:55;6.15;;;5.85;;
16900;SDS011;8567;52.540;6.434;2023-12-07T03:02:24;7.28;;;6.97;;
16900;SDS011;8567;52.540;6.434;2023-12-07T03:04:51;6.70;;;6.40;;
16900;SDS011;8567;52.540;6.434;2023-12-07T03:07:17;8.27;;;7.88;;
16900;SDS011;8567;52.540;6.434;2023-12-07T03:09:44;6.82;;;6.53;;
16900;SDS011;8567;52.540;6.434;2023-12-07T03:12:11;6.85;;;6.55;;
16900;SDS011;8567;52.540;6.434;2023-12-07T03:14:38;6.70;;;6.40;;
16900;SDS011;8567;52.540;6.434;2023-12-07T03:17:04;8.68;;;8.27;;
16900;SDS011;8567;52.540;6.434;2023-12-07T03:19:32;7.20;;;6.90;;
16900;SDS011;8567;52.540;6.434;2023-12-07T03:22:03;6.97;;;6.68;;
16900;SDS011;8567;52.540;6.434;2023-12-07T03:24:31;6.55;;;6.25;;
16900;SDS011;8567;52.540;6.434;2023-12-07T03:26:58;6.88;;;6.57;;
16900;SDS011;8567;52.540;6.434;2023-12-07T03:29:25;6.93;;;6.63;;
16900;SDS011;8567;52.540;6.434;2023-12-07T03:31:52;8.27;;;7.88;;
16900;SDS011;8567;52.540;6.434;2023-12-07T03:34:19;7.05;;;6.75;;
16900;SDS011;8567;52.540;6.434;2023-12-07T03:36:47;6.63;;;6.32;;
16900;SDS011;8567;52.540;6.434;2023-12-07T03:39:14;7.00;;;6.70;;
16900;SDS011;8567;52.540;6.434;2023-12-07T03:41:43;7.15;;;6.85;;
16900;SDS011;8567;52.540;6.434;2023-12-07T03:44:10;7.03;;;6.72;;
16900;SDS011;8567;52.540;6.434;2023-12-07T03:46:37;7.60;;;7.30;;
16900;SDS011;8567;52.540;6.434;2023-12-07T03:49:03;6.25;;;5.95;;
16900;SDS011;8567;52.540;6.434;2023-12-07T03:51:30;6.72;;;6.43;;
16900;SDS011;8567;52.540;6.434;2023-12-07T03:53:58;6.72;;;6.43;;
16900;SDS011;8567;52.540;6.434;2023-12-07T03:56:26;6.00;;;5.70;;
16900;SDS011;8567;52.540;6.434;2023-12-07T03:58:55;6.55;;;6.25;;
16900;SDS011;8567;52.540;6.434;2023-12-07T04:01:22;7.07;;;6.78;;
16900;SDS011;8567;52.540;6.434;2023-12-07T04:03:49;6.45;;;6.15;;
16900;SDS011;8567;52.540;6.434;2023-12-07T04:06:16;6.88;;;6.57;;
16900;SDS011;8567;52.540;6.434;2023-12-07T04:08:43;6.97;;;6.68;;
16900;SDS011;8567;52.540;6.434;2023-12-07T04:11:12;6.72;;;6.43;;
16900;SDS011;8567;52.540;6.434;2023-12-07T04:13:39;6.72;;;6.43;;
16900;SDS011;8567;52.540;6.434;2023-12-07T04:16:06;7.35;;;7.05;;
16900;SDS011;8567;52.540;6.434;2023-12-07T04:18:33;7.93;;;7.63;;
16900;SDS011;8567;52.540;6.434;2023-12-07T04:21:00;6.53;;;6.22;;
16900;SDS011;8567;52.540;6.434;2023-12-07T04:23:27;7.85;;;7.50;;
16900;SDS011;8567;52.540;6.434;2023-12-07T04:25:55;6.78;;;6.47;;
16900;SDS011;8567;52.540;6.434;2023-12-07T04:28:23;7.28;;;6.97;;
16900;SDS011;8567;52.540;6.434;2023-12-07T04:30:50;7.10;;;6.80;;
16900;SDS011;8567;52.540;6.434;2023-12-07T04:33:17;6.47;;;6.18;;
16900;SDS011;8567;52.540;6.434;2023-12-07T04:35:44;7.15;;;6.85;;
16900;SDS011;8567;52.540;6.434;2023-12-07T04:38:11;7.35;;;7.05;;
16900;SDS011;8567;52.540;6.434;2023-12-07T04:40:37;7.00;;;6.70;;
16900;SDS011;8567;52.540;6.434;2023-12-07T04:43:04;6.53;;;6.22;;
16900;SDS011;8567;52.540;6.434;2023-12-07T04:45:32;6.40;;;6.10;;
16900;SDS011;8567;52.540;6.434;2023-12-07T04:47:59;7.60;;;7.25;;
16900;SDS011;8567;52.540;6.434;2023-12-07T04:50:26;6.95;;;6.65;;
16900;SDS011;8567;52.540;6.434;2023-12-07T04:52:53;6.15;;;5.85;;
16900;SDS011;8567;52.540;6.434;2023-12-07T04:55:20;6.30;;;6.00;;
16900;SDS011;8567;52.540;6.434;2023-12-07T04:57:46;7.43;;;7.13;;
16900;SDS011;8567;52.540;6.434;2023-12-07T05:00:13;7.35;;;7.05;;
16900;SDS011;8567;52.540;6.434;2023-12-07T05:02:42;7.35;;;7.05;;
16900;SDS011;8567;52.540;6.434;2023-12-07T05:05:09;6.50;;;6.20;;
16900;SDS011;8567;52.540;6.434;2023-12-07T05:07:35;7.47;;;7.07;;
16900;SDS011;8567;52.540;6.434;2023-12-07T05:10:02;6.72;;;6.43;;
16900;SDS011;8567;52.540;6.434;2023-12-07T05:12:30;6.30;;;6.00;;
16900;SDS011;8567;52.540;6.434;2023-12-07T05:14:57;6.40;;;6.10;;
16900;SDS011;8567;52.540;6.434;2023-12-07T05:17:24;7.35;;;7.05;;
16900;SDS011;8567;52.540;6.434;2023-12-07T05:19:52;6.40;;;6.10;;
16900;SDS011;8567;52.540;6.434;2023-12-07T05:22:19;7.20;;;6.90;;
16900;SDS011;8567;52.540;6.434;2023-12-07T05:24:46;6.30;;;6.00;;
16900;SDS011;8567;52.540;6.434;2023-12-07T05:27:13;7.43;;;7.13;;
16900;SDS011;8567;52.540;6.434;2023-12-07T05:29:40;7.22;;;6.93;;
16900;SDS011;8567;52.540;6.434;2023-12-07T05:32:07;6.97;;;6.68;;
16900;SDS011;8567;52.540;6.434;2023-12-07T05:34:34;6.47;;;6.18;;
16900;SDS011;8567;52.540;6.434;2023-12-07T05:37:02;6.85;;;6.55;;
16900;SDS011;8567;52.540;6.434;2023-12-07T05:39:30;7.03;;;6.72;;
16900;SDS011;8567;52.540;6.434;2023-12-07T05:41:57;6.88;;;6.57;;
16900;SDS011;8567;52.540;6.434;2023-12-07T05:44:24;6.63;;;6.32;;
16900;SDS011;8567;52.540;6.434;2023-12-07T05:46:50;7.65;;;7.35;;
16900;SDS011;8567;52.540;6.434;2023-12-07T05:49:17;6.40;;;6.10;;
16900;SDS011;8567;52.540;6.434;2023-12-07T05:51:47;6.82;;;6.53;;
16900;SDS011;8567;52.540;6.434;2023-12-07T05:54:16;6.82;;;6.53;;
16900;SDS011;8567;52.540;6.434;2023-12-07T05:56:42;7.45;;;7.15;;
16900;SDS011;8567;52.540;6.434;2023-12-07T05:59:09;7.18;;;6.88;;
16900;SDS011;8567;52.540;6.434;2023-12-07T06:01:36;6.80;;;6.50;;
16900;SDS011;8567;52.540;6.434;2023-12-07T06:04:03;7.20;;;6.90;;
16900;SDS011;8567;52.540;6.434;2023-12-07T06:06:30;7.18;;;6.88;;
16900;SDS011;8567;52.540;6.434;2023-12-07T06:08:56;6.70;;;6.40;;
16900;SDS011;8567;52.540;6.434;2023-12-07T06:11:25;6.80;;;6.50;;
16900;SDS011;8567;52.540;6.434;2023-12-07T06:13:51;6.13;;;5.82;;
16900;SDS011;8567;52.540;6.434;2023-12-07T06:16:20;6.72;;;6.43;;
16900;SDS011;8567;52.540;6.434;2023-12-07T06:18:46;7.45;;;7.15;;
16900;SDS011;8567;52.540;6.434;2023-12-07T06:21:13;6.88;;;6.57;;
16900;SDS011;8567;52.540;6.434;2023-12-07T06:23:40;6.65;;;6.35;;
16900;SDS011;8567;52.540;6.434;2023-12-07T06:26:07;6.95;;;6.65;;
16900;SDS011;8567;52.540;6.434;2023-12-07T06:28:35;6.82;;;6.53;;
16900;SDS011;8567;52.540;6.434;2023-12-07T06:31:06;6.47;;;6.18;;
16900;SDS011;8567;52.540;6.434;2023-12-07T06:33:33;6.85;;;6.35;;
16900;SDS011;8567;52.540;6.434;2023-12-07T06:36:00;6.45;;;6.05;;
16900;SDS011;8567;52.540;6.434;2023-12-07T06:38:28;7.40;;;7.10;;
16900;SDS011;8567;52.540;6.434;2023-12-07T06:40:55;4.85;;;4.65;;
16900;SDS011;8567;52.540;6.434;2023-12-07T06:43:23;5.05;;;4.85;;
16900;SDS011;8567;52.540;6.434;2023-12-07T06:45:51;5.45;;;5.15;;
16900;SDS011;8567;52.540;6.434;2023-12-07T06:48:18;5.30;;;5.10;;
16900;SDS011;8567;52.540;6.434;2023-12-07T06:50:45;4.28;;;4.03;;
16900;SDS011;8567;52.540;6.434;2023-12-07T06:53:11;4.32;;;4.13;;
16900;SDS011;8567;52.540;6.434;2023-12-07T06:55:40;4.35;;;4.15;;
16900;SDS011;8567;52.540;6.434;2023-12-07T06:58:08;5.30;;;5.07;;
16900;SDS011;8567;52.540;6.434;2023-12-07T07:00:35;4.32;;;4.13;;
16900;SDS011;8567;52.540;6.434;2023-12-07T07:03:03;7.28;;;6.32;;
16900;SDS011;8567;52.540;6.434;2023-12-07T07:05:31;6.25;;;5.85;;
16900;SDS011;8567;52.540;6.434;2023-12-07T07:07:58;5.32;;;4.90;;
16900;SDS011;8567;52.540;6.434;2023-12-07T07:10:25;6.65;;;6.18;;
16900;SDS011;8567;52.540;6.434;2023-12-07T07:12:51;4.95;;;4.60;;
16900;SDS011;8567;52.540;6.434;2023-12-07T07:15:18;5.43;;;4.93;;
16900;SDS011;8567;52.540;6.434;2023-12-07T07:17:45;6.43;;;5.88;;
16900;SDS011;8567;52.540;6.434;2023-12-07T07:20:14;6.07;;;5.60;;
16900;SDS011;8567;52.540;6.434;2023-12-07T07:22:40;6.95;;;6.45;;
16900;SDS011;8567;52.540;6.434;2023-12-07T07:25:08;6.70;;;6.20;;
16900;SDS011;8567;52.540;6.434;2023-12-07T07:27:35;6.40;;;5.90;;
16900;SDS011;8567;52.540;6.434;2023-12-07T07:30:01;5.90;;;5.43;;
16900;SDS011;8567;52.540;6.434;2023-12-07T07:32:29;8.65;;;7.82;;
16900;SDS011;8567;52.540;6.434;2023-12-07T07:34:56;12.55;;;11.18;;
16900;SDS011;8567;52.540;6.434;2023-12-07T07:37:25;12.05;;;11.07;;
16900;SDS011;8567;52.540;6.434;2023-12-07T07:39:52;10.50;;;9.55;;
16900;SDS011;8567;52.540;6.434;2023-12-07T07:42:19;8.80;;;8.15;;
16900;SDS011;8567;52.540;6.434;2023-12-07T07:44:46;9.27;;;8.68;;
16900;SDS011;8567;52.540;6.434;2023-12-07T07:47:12;12.25;;;8.65;;
16900;SDS011;8567;52.540;6.434;2023-12-07T07:49:39;10.23;;;8.27;;
16900;SDS011;8567;52.540;6.434;2023-12-07T07:52:06;8.68;;;7.53;;
16900;SDS011;8567;52.540;6.434;2023-12-07T07:54:35;6.72;;;6.13;;
16900;SDS011;8567;52.540;6.434;2023-12-07T07:57:03;7.15;;;6.55;;
16900;SDS011;8567;52.540;6.434;2023-12-07T07:59:31;5.75;;;5.35;;
16900;SDS011;8567;52.540;6.434;2023-12-07T08:01:58;6.82;;;5.50;;
16900;SDS011;8567;52.540;6.434;2023-12-07T08:04:25;6.20;;;5.72;;
16900;SDS011;8567;52.540;6.434;2023-12-07T08:06:52;7.07;;;6.38;;
16900;SDS011;8567;52.540;6.434;2023-12-07T08:09:19;7.10;;;6.57;;
16900;SDS011;8567;52.540;6.434;2023-12-07T08:11:47;6.72;;;6.28;;
16900;SDS011;8567;52.540;6.434;2023-12-07T08:14:13;6.50;;;6.10;;
16900;SDS011;8567;52.540;6.434;2023-12-07T08:16:42;7.45;;;6.93;;
16900;SDS011;8567;52.540;6.434;2023-12-07T08:19:11;8.65;;;8.15;;
16900;SDS011;8567;52.540;6.434;2023-12-07T08:21:38;8.45;;;8.05;;
16900;SDS011;8567;52.540;6.434;2023-12-07T08:24:05;7.35;;;6.95;;
16900;SDS011;8567;52.540;6.434;2023-12-07T08:26:33;7.47;;;7.07;;
16900;SDS011;8567;52.540;6.434;2023-12-07T08:29:01;7.32;;;6.93;;
16900;SDS011;8567;52.540;6.434;2023-12-07T08:31:28;7.57;;;7.18;;
16900;SDS011;8567;52.540;6.434;2023-12-07T08:33:55;7.38;;;6.88;;
16900;SDS011;8567;52.540;6.434;2023-12-07T08:36:22;7.78;;;7.38;;
16900;SDS011;8567;52.540;6.434;2023-12-07T08:38:48;8.52;;;8.13;;
16900;SDS011;8567;52.540;6.434;2023-12-07T08:41:15;8.95;;;8.45;;
16900;SDS011;8567;52.540;6.434;2023-12-07T08:43:42;7.85;;;7.45;;
16900;SDS011;8567;52.540;6.434;2023-12-07T08:46:10;8.05;;;7.60;;
16900;SDS011;8567;52.540;6.434;2023-12-07T08:48:37;7.90;;;7.50;;
16900;SDS011;8567;52.540;6.434;2023-12-07T08:51:04;8.68;;;8.27;;
16900;SDS011;8567;52.540;6.434;2023-12-07T08:53:33;8.23;;;7.82;;
16900;SDS011;8567;52.540;6.434;2023-12-07T08:56:00;7.95;;;7.45;;
16900;SDS011;8567;52.540;6.434;2023-12-07T08:58:27;8.45;;;8.05;;
16900;SDS011;8567;52.540;6.434;2023-12-07T09:00:54;8.98;;;8.55;;
16900;SDS011;8567;52.540;6.434;2023-12-07T09:03:22;8.15;;;7.75;;
16900;SDS011;8567;52.540;6.434;2023-12-07T09:05:52;7.95;;;7.45;;
16900;SDS011;8567;52.540;6.434;2023-12-07T09:08:19;8.57;;;8.07;;
16900;SDS011;8567;52.540;6.434;2023-12-07T09:10:45;7.93;;;7.53;;
16900;SDS011;8567;52.540;6.434;2023-12-07T09:13:14;8.40;;;8.00;;
16900;SDS011;8567;52.540;6.434;2023-12-07T09:15:41;8.73;;;8.32;;
16900;SDS011;8567;52.540;6.434;2023-12-07T09:18:08;8.77;;;8.35;;
16900;SDS011;8567;52.540;6.434;2023-12-07T09:20:37;9.65;;;9.15;;
16900;SDS011;8567;52.540;6.434;2023-12-07T09:23:10;9.52;;;9.05;;
16900;SDS011;8567;52.540;6.434;2023-12-07T09:25:37;9.02;;;8.52;;
16900;SDS011;8567;52.540;6.434;2023-12-07T09:28:05;8.32;;;7.93;;
16900;SDS011;8567;52.540;6.434;2023-12-07T09:30:33;8.70;;;8.25;;
16900;SDS011;8567;52.540;6.434;2023-12-07T09:33:00;8.25;;;7.85;;
16900;SDS011;8567;52.540;6.434;2023-12-07T09:35:28;8.23;;;7.82;;
16900;SDS011;8567;52.540;6.434;2023-12-07T09:37:56;8.02;;;7.63;;
16900;SDS011;8567;52.540;6.434;2023-12-07T09:40:23;9.85;;;9.00;;
16900;SDS011;8567;52.540;6.434;2023-12-07T09:42:50;8.27;;;7.88;;
16900;SDS011;8567;52.540;6.434;2023-12-07T09:45:18;8.10;;;7.70;;
16900;SDS011;8567;52.540;6.434;2023-12-07T09:47:47;8.85;;;8.45;;
16900;SDS011;8567;52.540;6.434;2023-12-07T09:50:15;8.05;;;7.65;;
16900;SDS011;8567;52.540;6.434;2023-12-07T09:52:42;8.38;;;7.97;;
16900;SDS011;8567;52.540;6.434;2023-12-07T09:55:10;7.95;;;7.55;;
16900;SDS011;8567;52.540;6.434;2023-12-07T09:57:37;8.45;;;8.05;;
16900;SDS011;8567;52.540;6.434;2023-12-07T10:00:04;8.63;;;8.23;;
16900;SDS011;8567;52.540;6.434;2023-12-07T10:02:36;9.48;;;9.02;;
16900;SDS011;8567;52.540;6.434;2023-12-07T10:05:04;8.38;;;7.95;;
16900;SDS011;8567;52.540;6.434;2023-12-07T10:07:34;8.00;;;7.60;;
16900;SDS011;8567;52.540;6.434;2023-12-07T10:10:02;7.47;;;7.18;;
16900;SDS011;8567;52.540;6.434;2023-12-07T10:12:31;7.95;;;7.55;;
16900;SDS011;8567;52.540;6.434;2023-12-07T10:14:59;7.43;;;7.13;;
16900;SDS011;8567;52.540;6.434;2023-12-07T10:17:42;8.07;;;7.68;;
16900;SDS011;8567;52.540;6.434;2023-12-07T10:20:13;8.18;;;7.78;;
16900;SDS011;8567;52.540;6.434;2023-12-07T10:22:40;8.07;;;7.68;;
16900;SDS011;8567;52.540;6.434;2023-12-07T10:25:07;8.10;;;7.70;;
16900;SDS011;8567;52.540;6.434;2023-12-07T10:27:38;8.50;;;8.10;;
16900;SDS011;8567;52.540;6.434;2023-12-07T10:30:07;9.52;;;9.13;;
16900;SDS011;8567;52.540;6.434;2023-12-07T10:32:36;8.57;;;8.18;;
16900;SDS011;8567;52.540;6.434;2023-12-07T10:35:04;7.45;;;7.13;;
16900;SDS011;8567;52.540;6.434;2023-12-07T10:37:33;7.88;;;7.53;;
16900;SDS011;8567;52.540;6.434;2023-12-07T10:40:00;7.65;;;7.30;;
16900;SDS011;8567;52.540;6.434;2023-12-07T10:42:29;8.10;;;7.70;;
16900;SDS011;8567;52.540;6.434;2023-12-07T10:45:01;7.85;;;7.45;;
16900;SDS011;8567;52.540;6.434;2023-12-07T10:47:31;7.88;;;7.50;;
16900;SDS011;8567;52.540;6.434;2023-12-07T10:50:01;8.30;;;7.90;;
16900;SDS011;8567;52.540;6.434;2023-12-07T10:52:31;8.77;;;8.38;;
16900;SDS011;8567;52.540;6.434;2023-12-07T10:55:02;9.13;;;8.73;;
16900;SDS011;8567;52.540;6.434;2023-12-07T10:57:30;8.70;;;8.30;;
16900;SDS011;8567;52.540;6.434;2023-12-07T11:00:01;8.38;;;7.97;;
16900;SDS011;8567;52.540;6.434;2023-12-07T11:02:28;8.15;;;7.75;;
16900;SDS011;8567;52.540;6.434;2023-12-07T11:04:58;8.77;;;8.38;;
16900;SDS011;8567;52.540;6.434;2023-12-07T11:07:27;7.47;;;7.18;;
16900;SDS011;8567;52.540;6.434;2023-12-07T11:10:04;7.50;;;7.20;;
16900;SDS011;8567;52.540;6.434;2023-12-07T11:12:38;9.18;;;8.77;;
16900;SDS011;8567;52.540;6.434;2023-12-07T11:15:14;10.07;;;9.57;;
16900;SDS011;8567;52.540;6.434;2023-12-07T11:17:52;8.85;;;8.45;;
16900;SDS011;8567;52.540;6.434;2023-12-07T11:20:20;8.20;;;7.80;;
16900;SDS011;8567;52.540;6.434;2023-12-07T11:22:48;7.78;;;7.43;;
16900;SDS011;8567;52.540;6.434;2023-12-07T11:25:16;9.45;;;9.05;;
16900;SDS011;8567;52.540;6.434;2023-12-07T11:27:44;9.18;;;8.77;;
16900;SDS011;8567;52.540;6.434;2023-12-07T11:30:14;8.95;;;8.55;;
16900;SDS011;8567;52.540;6.434;2023-12-07T11:32:42;8.60;;;8.20;;
16900;SDS011;8567;52.540;6.434;2023-12-07T11:35:14;9.43;;;9.02;;
16900;SDS011;8567;52.540;6.434;2023-12-07T11:38:00;9.10;;;8.70;;
16900;SDS011;8567;52.540;6.434;2023-12-07T11:40:29;7.85;;;7.45;;
16900;SDS011;8567;52.540;6.434;2023-12-07T11:42:56;8.13;;;7.72;;
16900;SDS011;8567;52.540;6.434;2023-12-07T11:48:15;7.97;;;7.63;;
16900;SDS011;8567;52.540;6.434;2023-12-07T11:50:53;8.75;;;8.35;;
16900;SDS011;8567;52.540;6.434;2023-12-07T11:53:24;7.88;;;7.53;;
16900;SDS011;8567;52.540;6.434;2023-12-07T11:55:52;8.05;;;7.65;;
16900;SDS011;8567;52.540;6.434;2023-12-07T11:58:19;8.52;;;8.13;;
16900;SDS011;8567;52.540;6.434;2023-12-07T12:00:47;8.85;;;8.45;;
16900;SDS011;8567;52.540;6.434;2023-12-07T12:03:14;9.13;;;8.73;;
16900;SDS011;8567;52.540;6.434;2023-12-07T12:05:41;9.50;;;9.10;;
16900;SDS011;8567;52.540;6.434;2023-12-07T12:08:09;9.15;;;8.75;;
16900;SDS011;8567;52.540;6.434;2023-12-07T12:10:36;8.98;;;8.57;;
16900;SDS011;8567;52.540;6.434;2023-12-07T12:13:03;8.73;;;8.32;;
16900;SDS011;8567;52.540;6.434;2023-12-07T12:15:30;8.40;;;8.00;;
16900;SDS011;8567;52.540;6.434;2023-12-07T12:17:59;8.63;;;8.23;;
16900;SDS011;8567;52.540;6.434;2023-12-07T12:20:27;8.75;;;8.35;;
16900;SDS011;8567;52.540;6.434;2023-12-07T12:22:54;8.70;;;8.30;;
16900;SDS011;8567;52.540;6.434;2023-12-07T12:25:21;9.15;;;8.75;;
16900;SDS011;8567;52.540;6.434;2023-12-07T12:27:51;8.57;;;8.18;;
16900;SDS011;8567;52.540;6.434;2023-12-07T12:30:19;8.82;;;8.43;;
16900;SDS011;8567;52.540;6.434;2023-12-07T12:32:47;8.73;;;8.32;;
16900;SDS011;8567;52.540;6.434;2023-12-07T12:35:16;9.80;;;9.32;;
16900;SDS011;8567;52.540;6.434;2023-12-07T12:37:44;8.77;;;8.38;;
16900;SDS011;8567;52.540;6.434;2023-12-07T12:40:12;8.85;;;8.45;;
16900;SDS011;8567;52.540;6.434;2023-12-07T12:42:41;9.05;;;8.65;;
16900;SDS011;8567;52.540;6.434;2023-12-07T12:45:09;9.90;;;9.45;;
16900;SDS011;8567;52.540;6.434;2023-12-07T12:47:37;9.68;;;9.25;;
16900;SDS011;8567;52.540;6.434;2023-12-07T12:50:04;9.00;;;8.57;;
16900;SDS011;8567;52.540;6.434;2023-12-07T12:52:33;8.35;;;7.95;;
16900;SDS011;8567;52.540;6.434;2023-12-07T12:55:01;8.57;;;8.18;;
16900;SDS011;8567;52.540;6.434;2023-12-07T12:57:28;8.23;;;7.82;;
16900;SDS011;8567;52.540;6.434;2023-12-07T12:59:57;9.05;;;8.65;;
16900;SDS011;8567;52.540;6.434;2023-12-07T13:02:27;8.60;;;8.20;;
16900;SDS011;8567;52.540;6.434;2023-12-07T13:04:54;9.05;;;8.65;;
16900;SDS011;8567;52.540;6.434;2023-12-07T13:07:21;9.57;;;9.18;;
16900;SDS011;8567;52.540;6.434;2023-12-07T13:09:50;9.07;;;8.68;;
16900;SDS011;8567;52.540;6.434;2023-12-07T13:12:17;8.60;;;8.20;;
16900;SDS011;8567;52.540;6.434;2023-12-07T13:14:45;9.23;;;8.82;;
16900;SDS011;8567;52.540;6.434;2023-12-07T13:17:12;8.90;;;8.50;;
16900;SDS011;8567;52.540;6.434;2023-12-07T13:19:38;9.32;;;8.93;;
16900;SDS011;8567;52.540;6.434;2023-12-07T13:22:05;8.93;;;8.52;;
16900;SDS011;8567;52.540;6.434;2023-12-07T13:24:32;9.73;;;9.23;;
16900;SDS011;8567;52.540;6.434;2023-12-07T13:27:01;9.55;;;9.07;;
16900;SDS011;8567;52.540;6.434;2023-12-07T13:29:28;9.25;;;8.85;;
16900;SDS011;8567;52.540;6.434;2023-12-07T13:31:55;8.48;;;8.07;;
16900;SDS011;8567;52.540;6.434;2023-12-07T13:34:23;8.23;;;7.82;;
16900;SDS011;8567;52.540;6.434;2023-12-07T13:36:51;8.75;;;8.35;;
16900;SDS011;8567;52.540;6.434;2023-12-07T13:39:18;9.05;;;8.65;;
16900;SDS011;8567;52.540;6.434;2023-12-07T13:41:45;8.85;;;8.45;;
16900;SDS011;8567;52.540;6.434;2023-12-07T13:44:15;9.15;;;8.65;;
16900;SDS011;8567;52.540;6.434;2023-12-07T13:46:43;10.80;;;10.30;;
16900;SDS011;8567;52.540;6.434;2023-12-07T13:49:10;9.57;;;9.18;;
16900;SDS011;8567;52.540;6.434;2023-12-07T13:51:39;9.32;;;8.93;;
16900;SDS011;8567;52.540;6.434;2023-12-07T13:54:06;9.80;;;9.30;;
16900;SDS011;8567;52.540;6.434;2023-12-07T13:56:33;9.02;;;8.63;;
16900;SDS011;8567;52.540;6.434;2023-12-07T13:59:00;8.25;;;7.85;;
16900;SDS011;8567;52.540;6.434;2023-12-07T14:01:29;9.30;;;8.90;;
16900;SDS011;8567;52.540;6.434;2023-12-07T14:03:57;9.43;;;9.00;;
16900;SDS011;8567;52.540;6.434;2023-12-07T14:06:23;9.80;;;9.40;;
16900;SDS011;8567;52.540;6.434;2023-12-07T14:08:51;9.55;;;9.07;;
16900;SDS011;8567;52.540;6.434;2023-12-07T14:11:18;10.07;;;9.57;;
16900;SDS011;8567;52.540;6.434;2023-12-07T14:13:45;9.82;;;9.32;;
16900;SDS011;8567;52.540;6.434;2023-12-07T14:16:13;9.50;;;9.00;;
16900;SDS011;8567;52.540;6.434;2023-12-07T14:18:41;9.07;;;8.68;;
16900;SDS011;8567;52.540;6.434;2023-12-07T14:21:08;9.10;;;8.65;;
16900;SDS011;8567;52.540;6.434;2023-12-07T14:23:36;10.10;;;9.60;;
16900;SDS011;8567;52.540;6.434;2023-12-07T14:26:03;10.65;;;10.15;;
16900;SDS011;8567;52.540;6.434;2023-12-07T14:28:30;9.73;;;9.25;;
16900;SDS011;8567;52.540;6.434;2023-12-07T14:30:59;9.60;;;9.13;;
16900;SDS011;8567;52.540;6.434;2023-12-07T14:33:26;9.00;;;8.60;;
16900;SDS011;8567;52.540;6.434;2023-12-07T14:35:54;9.07;;;8.65;;
16900;SDS011;8567;52.540;6.434;2023-12-07T14:38:21;9.13;;;8.73;;
16900;SDS011;8567;52.540;6.434;2023-12-07T14:40:49;9.07;;;8.68;;
16900;SDS011;8567;52.540;6.434;2023-12-07T14:43:15;10.40;;;9.90;;
16900;SDS011;8567;52.540;6.434;2023-12-07T14:45:42;10.80;;;10.30;;
16900;SDS011;8567;52.540;6.434;2023-12-07T14:48:09;11.25;;;10.73;;
16900;SDS011;8567;52.540;6.434;2023-12-07T14:50:37;10.30;;;9.80;;
16900;SDS011;8567;52.540;6.434;2023-12-07T14:53:05;9.38;;;8.88;;
16900;SDS011;8567;52.540;6.434;2023-12-07T14:55:32;10.65;;;10.07;;
16900;SDS011;8567;52.540;6.434;2023-12-07T14:57:59;9.77;;;9.27;;
16900;SDS011;8567;52.540;6.434;2023-12-07T15:00:26;9.75;;;9.25;;
16900;SDS011;8567;52.540;6.434;2023-12-07T15:02:53;10.63;;;10.13;;
16900;SDS011;8567;52.540;6.434;2023-12-07T15:05:21;11.45;;;10.85;;